Dakar, Senegal

10:52 AM GMT on June 24, 2018 (GMT +0000)
Dakar | | Change Station

Elev 79 ft 14.73 °N, 17.50 °W | Updated 52 minutes ago

Partly Cloudy
Partly Cloudy
81 °F
Feels Like 85 °F
N
5
Wind Variable Wind from West

Today
High -- | Low -- °F
--% Chance of Precip.
Yesterday
High -- | Low -- °F
Precip. -- in
Pressure 29.95 in
Visibility 6.2 miles
Clouds Scattered Clouds 1300 ft
Scattered Clouds 23000 ft
Heat Index 85 °F
Dew Point 73 °F
Humidity 79%
Rainfall 0.00 in
Snow Depth Not available.
6:42 AM 7:42 PM
Waxing Gibbous, 87% visible
METAR GOOY 241000Z 28004KT 9999 SCT013 SCT230 27/23 Q1014
Pressure 29.95 in
Visibility 6.2 miles
Clouds Scattered Clouds 1300 ft
Scattered Clouds 23000 ft
Heat Index 85 °F
Dew Point 73 °F
Humidity 79%
Rainfall 0.00 in
Snow Depth Not available.
6:42 AM 7:42 PM
Waxing Gibbous, 87% visible
METAR GOOY 241000Z 28004KT 9999 SCT013 SCT230 27/23 Q1014

Get Severe Weather Alerts

Thanks for signing up!

Be on the lookout for a verification email in your inbox.

You'll start receiving the daily forecast at 6 AM.

×

10-Day Weather Forecast

No radar image for this location.
×

Almanac

Astronomy

Jun. 24, 2018 Rise Set
Actual Time
Civil Twilight
Nautical Twilight
Astronomical Twilight
Moon
Length of Visible Light
Length of Day
Tomorrow will be .
, % of the Moon is Illuminated

Today's Extremes

Country Highs Country Lows

Community

WunderPhotos

Category 6

Welcome to Category 6. This is the collective home for Weather Underground's featured writeups by Dr. Jeff Masters (right), Bob Henson (left), Chris Burt, and other regular contributors.

Nearby

Air Quality

  Air Quality AQ Index Pollutant
Not available.

Snow Depth

Station Depth Elevation

Earthquake Activity

City Distance Mag. Time & Date
Minimum magnitude displayed is 2.5.

Coastal Water Temperatures

Place Temperature

Stations

Nearby Weather Stations

Station Location Temp. Windchill Dew Point Humidity Wind Precip. Elev Updated Type